createdAt,value
2023-05-09T00:00:13.796Z,99267.00
2023-05-09T00:01:15.502Z,99262.09
2023-05-09T00:02:18.035Z,99265.16
2023-05-09T00:03:19.962Z,99247.84
2023-05-09T00:04:21.750Z,99263.31
2023-05-09T00:05:23.559Z,99258.84
2023-05-09T00:06:27.764Z,99255.16
2023-05-09T00:07:30.114Z,99271.22
2023-05-09T00:08:31.810Z,99261.25
2023-05-09T00:09:33.576Z,99256.41
2023-05-09T00:10:35.409Z,99262.91
2023-05-09T00:11:37.145Z,99264.94
2023-05-09T00:12:39.189Z,99261.06
2023-05-09T00:13:42.068Z,99255.97
2023-05-09T00:14:45.634Z,99254.34
2023-05-09T00:15:47.375Z,99256.81
2023-05-09T00:16:49.410Z,99255.56
2023-05-09T00:17:51.678Z,99259.22
2023-05-09T00:18:53.402Z,99252.13
2023-05-09T00:19:55.593Z,99255.56
2023-05-09T00:20:57.809Z,99259.44
2023-05-09T00:21:59.585Z,99262.50
2023-05-09T00:23:01.311Z,99249.50
2023-05-09T00:24:03.030Z,99245.41
2023-05-09T00:25:05.973Z,99248.25
2023-05-09T00:26:08.023Z,99248.84
2023-05-09T00:27:10.425Z,99239.31
2023-05-09T00:28:12.174Z,99246.81
2023-05-09T00:29:13.854Z,99243.56
2023-05-09T00:30:15.618Z,99247.44
2023-05-09T00:31:17.322Z,99242.38
2023-05-09T00:32:19.098Z,99247.25
2023-05-09T00:33:21.358Z,99242.56
2023-05-09T00:34:23.120Z,99253.75
2023-05-09T00:35:24.811Z,99242.56
2023-05-09T00:36:26.491Z,99260.03
2023-05-09T00:37:30.674Z,99254.16
2023-05-09T00:38:32.469Z,99244.63
2023-05-09T00:39:34.163Z,99257.00
2023-05-09T00:40:35.856Z,99253.13
2023-05-09T00:41:37.546Z,99245.44
2023-05-09T00:42:39.396Z,99251.09
2023-05-09T00:43:41.109Z,99259.22
2023-05-09T00:44:43.044Z,99258.03
2023-05-09T00:45:45.705Z,99259.66
2023-05-09T00:46:47.557Z,99250.47
2023-05-09T00:47:49.512Z,99256.81
2023-05-09T00:48:52.506Z,99258.63
2023-05-09T00:49:54.629Z,99258.44
2023-05-09T00:50:56.479Z,99261.06
2023-05-09T00:51:59.018Z,99255.19
2023-05-09T00:53:01.081Z,99264.13
2023-05-09T00:54:02.954Z,99263.31
2023-05-09T00:55:08.474Z,99266.16
2023-05-09T00:56:12.218Z,99261.69
2023-05-09T00:57:14.605Z,99260.06
2023-05-09T00:58:17.087Z,99258.41
2023-05-09T00:59:19.080Z,99249.47
2023-05-09T01:00:21.575Z,99256.78
2023-05-09T01:01:24.297Z,99261.28
2023-05-09T01:02:27.346Z,99257.81
2023-05-09T01:03:30.201Z,99259.84
2023-05-09T01:04:32.464Z,99266.38
2023-05-09T01:05:44.163Z,99263.69
2023-05-09T01:07:09.600Z,99263.69
2023-05-09T01:08:36.930Z,99258.63
2023-05-09T01:09:56.653Z,99259.84
2023-05-09T01:10:58.291Z,99268.59
2023-05-09T01:12:47.229Z,99274.50
2023-05-09T01:13:59.866Z,99281.41
2023-05-09T01:15:16.714Z,99275.09
2023-05-09T01:16:51.204Z,99279.78
2023-05-09T01:17:59.392Z,99282.06
2023-05-09T01:19:06.952Z,99287.34
2023-05-09T01:20:49.911Z,99283.84
2023-05-09T01:21:53.112Z,99282.88
2023-05-09T01:23:15.284Z,99277.34
2023-05-09T01:24:48.317Z,99283.22
2023-05-09T01:26:28.843Z,99290.75
2023-05-09T01:27:45.545Z,99283.66
2023-05-09T01:29:24.889Z,99285.28
2023-05-09T01:30:27.662Z,99268.00
2023-05-09T01:31:30.559Z,99280.00
2023-05-09T01:32:34.655Z,99271.84
2023-05-09T01:33:40.703Z,99281.59
2023-05-09T01:34:45.078Z,99278.75
2023-05-09T01:35:52.362Z,99273.91
2023-05-09T01:36:58.548Z,99279.16
2023-05-09T01:38:02.482Z,99278.56
2023-05-09T01:39:05.974Z,99281.84
2023-05-09T01:40:20.316Z,99277.56
2023-05-09T01:41:24.732Z,99274.72
2023-05-09T01:42:31.067Z,99276.72
2023-05-09T01:43:33.921Z,99278.78
2023-05-09T01:44:41.330Z,99272.66
2023-05-09T01:45:44.095Z,99278.16
2023-05-09T01:46:47.123Z,99276.75
2023-05-09T01:47:49.581Z,99275.53
2023-05-09T01:48:52.851Z,99281.81
2023-05-09T01:49:56.394Z,99286.50
2023-05-09T01:50:59.493Z,99283.22
2023-05-09T01:52:15.157Z,99280.00
2023-05-09T01:53:17.874Z,99276.13
2023-05-09T01:54:22.388Z,99284.06
2023-05-09T01:55:28.608Z,99279.56
2023-05-09T01:56:31.931Z,99284.66
2023-05-09T01:57:35.661Z,99282.22
2023-05-09T01:58:38.627Z,99289.13
2023-05-09T01:59:45.444Z,99285.28
2023-05-09T02:00:48.698Z,99290.78
2023-05-09T02:01:51.026Z,99290.38
2023-05-09T02:02:53.519Z,99292.19
2023-05-09T02:03:57.499Z,99287.72
2023-05-09T02:05:00.559Z,99286.91
2023-05-09T02:06:04.013Z,99293.41
2023-05-09T02:07:06.756Z,99296.69
2023-05-09T02:08:09.740Z,99289.97
2023-05-09T02:09:12.983Z,99286.28
2023-05-09T02:10:16.218Z,99297.28
2023-05-09T02:11:17.977Z,99291.38
2023-05-09T02:12:20.383Z,99289.34
2023-05-09T02:13:22.147Z,99290.75
2023-05-09T02:14:23.904Z,99291.78
2023-05-09T02:15:26.326Z,99293.00
2023-05-09T02:16:28.663Z,99290.56
2023-05-09T02:17:30.927Z,99293.22
2023-05-09T02:18:32.841Z,99287.31
2023-05-09T02:19:35.875Z,99294.44
2023-05-09T02:20:37.686Z,99293.41
2023-05-09T02:21:39.491Z,99301.13
2023-05-09T02:22:43.125Z,99292.59
2023-05-09T02:23:44.965Z,99289.16
2023-05-09T02:24:46.725Z,99302.38
2023-05-09T02:25:48.734Z,99299.94
2023-05-09T02:26:50.691Z,99296.88
2023-05-09T02:27:55.736Z,99303.59
2023-05-09T02:28:59.067Z,99301.97
2023-05-09T02:30:07.558Z,99294.22
2023-05-09T02:31:12.548Z,99295.84
2023-05-09T02:32:19.199Z,99290.16
2023-05-09T02:33:20.978Z,99296.84
2023-05-09T02:34:23.288Z,99293.00
2023-05-09T02:35:27.474Z,99305.63
2023-05-09T02:36:29.736Z,99305.19
2023-05-09T02:37:32.071Z,99307.22
2023-05-09T02:38:34.777Z,99307.19
2023-05-09T02:39:37.217Z,99310.06
2023-05-09T02:40:39.623Z,99310.66
2023-05-09T02:41:48.482Z,99310.66
2023-05-09T02:42:50.215Z,99298.47
2023-05-09T02:43:51.898Z,99312.50
2023-05-09T02:44:54.111Z,99310.66
2023-05-09T02:45:55.976Z,99304.38
2023-05-09T02:46:57.681Z,99310.03
2023-05-09T02:47:59.477Z,99308.41
2023-05-09T02:49:01.189Z,99316.34
2023-05-09T02:50:03.011Z,99310.03
2023-05-09T02:51:04.910Z,99317.16
2023-05-09T02:52:07.192Z,99306.78
2023-05-09T02:53:09.245Z,99314.94
2023-05-09T02:54:11.033Z,99317.34
2023-05-09T02:55:13.131Z,99316.97
2023-05-09T02:56:15.101Z,99312.06
2023-05-09T02:57:16.915Z,99322.44
2023-05-09T02:58:18.647Z,99315.34
2023-05-09T02:59:20.500Z,99310.66
2023-05-09T03:00:22.936Z,99323.69
2023-05-09T03:01:25.071Z,99315.53
2023-05-09T03:02:27.053Z,99318.97
2023-05-09T03:03:29.073Z,99321.22
2023-05-09T03:04:30.953Z,99315.94
2023-05-09T03:05:32.683Z,99313.09
2023-05-09T03:06:34.388Z,99317.97
2023-05-09T03:07:37.119Z,99315.75
2023-05-09T03:08:38.824Z,99317.78
2023-05-09T03:09:41.269Z,99321.81
2023-05-09T03:10:43.160Z,99321.81
2023-05-09T03:11:44.865Z,99326.31
2023-05-09T03:12:46.579Z,99325.09
2023-05-09T03:13:48.342Z,99332.63
2023-05-09T03:14:50.119Z,99326.31
2023-05-09T03:15:51.850Z,99327.34
2023-05-09T03:16:53.648Z,99333.84
2023-05-09T03:17:55.506Z,99335.47
2023-05-09T03:18:57.420Z,99338.53
2023-05-09T03:19:59.970Z,99340.97
2023-05-09T03:21:03.368Z,99354.38
2023-05-09T03:22:05.073Z,99340.56
2023-05-09T03:23:06.768Z,99338.91
2023-05-09T03:24:08.708Z,99333.84
2023-05-09T03:25:10.407Z,99338.31
2023-05-09T03:26:12.272Z,99349.88
2023-05-09T03:27:15.237Z,99351.13
2023-05-09T03:28:16.908Z,99335.66
2023-05-09T03:29:18.598Z,99334.44
2023-05-09T03:30:20.399Z,99351.50
2023-05-09T03:31:22.177Z,99340.75
2023-05-09T03:32:24.039Z,99340.91
2023-05-09T03:33:26.047Z,99354.97
2023-05-09T03:34:27.793Z,99347.03
2023-05-09T03:35:29.549Z,99354.16
2023-05-09T03:36:32.406Z,99351.50
2023-05-09T03:37:34.102Z,99352.75
2023-05-09T03:38:35.817Z,99351.72
2023-05-09T03:39:37.616Z,99354.34
2023-05-09T03:40:39.304Z,99355.16
2023-05-09T03:41:41.905Z,99347.66
2023-05-09T03:42:43.612Z,99353.16
2023-05-09T03:43:45.704Z,99352.31
2023-05-09T03:44:47.686Z,99358.81
2023-05-09T03:45:49.443Z,99360.03
2023-05-09T03:46:51.217Z,99366.94
2023-05-09T03:47:52.953Z,99364.91
2023-05-09T03:48:54.920Z,99369.81
2023-05-09T03:49:56.612Z,99365.75
2023-05-09T03:50:58.566Z,99370.44
2023-05-09T03:52:00.392Z,99371.06
2023-05-09T03:53:02.565Z,99364.34
2023-05-09T03:54:04.469Z,99373.72
2023-05-09T03:55:06.772Z,99366.38
2023-05-09T03:56:08.599Z,99370.25
2023-05-09T03:57:10.294Z,99373.47
2023-05-09T03:58:12.808Z,99361.50
2023-05-09T03:59:14.501Z,99366.97
2023-05-09T04:00:16.473Z,99362.50
2023-05-09T04:01:18.414Z,99369.25
2023-05-09T04:02:20.237Z,99364.97
2023-05-09T04:03:22.236Z,99363.34
2023-05-09T04:04:24.050Z,99371.88
2023-05-09T04:05:27.161Z,99371.03
2023-05-09T04:06:30.214Z,99376.31
2023-05-09T04:07:32.009Z,99358.63
2023-05-09T04:08:34.127Z,99357.81
2023-05-09T04:09:35.856Z,99365.34
2023-05-09T04:10:37.599Z,99363.91
2023-05-09T04:11:39.578Z,99361.88
2023-05-09T04:12:41.381Z,99361.28
2023-05-09T04:13:43.132Z,99367.38
2023-05-09T04:14:46.767Z,99359.63
2023-05-09T04:15:49.946Z,99341.53
2023-05-09T04:16:51.756Z,99373.91
2023-05-09T04:17:53.510Z,99362.66
2023-05-09T04:18:55.353Z,99372.03
2023-05-09T04:19:57.026Z,99356.38
2023-05-09T04:20:58.826Z,99366.56
2023-05-09T04:22:00.623Z,99365.16
2023-05-09T04:23:02.404Z,99369.00
2023-05-09T04:24:04.130Z,99365.34
2023-05-09T04:25:06.696Z,99355.19
2023-05-09T04:26:09.814Z,99368.22
2023-05-09T04:27:11.586Z,99371.06
2023-05-09T04:28:13.406Z,99377.56
2023-05-09T04:29:15.121Z,99364.97
2023-05-09T04:30:16.889Z,99374.53
2023-05-09T04:31:19.508Z,99370.69
2023-05-09T04:32:23.456Z,99366.63
2023-05-09T04:33:25.171Z,99364.78
2023-05-09T04:34:27.828Z,99365.81
2023-05-09T04:35:30.362Z,99367.25
2023-05-09T04:36:33.923Z,99364.19
2023-05-09T04:37:35.802Z,99366.63
2023-05-09T04:38:37.497Z,99368.25
2023-05-09T04:39:40.151Z,99370.28
2023-05-09T04:40:41.880Z,99373.53
2023-05-09T04:41:44.666Z,99364.78
2023-05-09T04:42:46.473Z,99369.28
2023-05-09T04:43:48.205Z,99371.13
2023-05-09T04:44:49.927Z,99367.25
2023-05-09T04:45:51.827Z,99371.13
2023-05-09T04:46:55.231Z,99374.38
2023-05-09T04:47:56.964Z,99370.50
2023-05-09T04:48:58.768Z,99372.13
2023-05-09T04:50:00.545Z,99376.84
2023-05-09T04:51:05.110Z,99382.72
2023-05-09T04:52:07.255Z,99369.91
2023-05-09T04:53:09.230Z,99370.72
2023-05-09T04:54:11.189Z,99381.31
2023-05-09T04:55:13.102Z,99379.09
2023-05-09T04:56:14.954Z,99381.69
2023-05-09T04:57:18.847Z,99375.41
2023-05-09T04:58:20.926Z,99384.56
2023-05-09T04:59:22.668Z,99374.59
2023-05-09T05:00:24.372Z,99374.38
2023-05-09T05:01:26.779Z,99379.47
2023-05-09T05:02:28.608Z,99386.78
2023-05-09T05:03:30.379Z,99377.44
2023-05-09T05:04:32.704Z,99384.78
2023-05-09T05:05:37.215Z,99388.00
2023-05-09T05:06:39.410Z,99382.72
2023-05-09T05:07:41.143Z,99378.84
2023-05-09T05:08:43.286Z,99380.69
2023-05-09T05:09:45.022Z,99385.81
2023-05-09T05:10:47.585Z,99387.00
2023-05-09T05:11:59.588Z,99383.34
2023-05-09T05:13:03.830Z,99384.19
2023-05-09T05:14:05.630Z,99388.44
2023-05-09T05:15:07.717Z,99395.16
2023-05-09T05:16:09.493Z,99394.16
2023-05-09T05:17:11.328Z,99390.72
2023-05-09T05:18:13.113Z,99392.16
2023-05-09T05:19:14.832Z,99402.31
2023-05-09T05:20:16.679Z,99391.53
2023-05-09T05:21:18.401Z,99394.38
2023-05-09T05:22:20.133Z,99393.78
2023-05-09T05:23:22.095Z,99393.94
2023-05-09T05:24:23.799Z,99399.63
2023-05-09T05:25:28.717Z,99392.28
2023-05-09T05:26:30.825Z,99395.75
2023-05-09T05:27:32.586Z,99390.84
2023-05-09T05:28:34.347Z,99391.88
2023-05-09T05:29:36.068Z,99399.78
2023-05-09T05:30:37.891Z,99396.31
2023-05-09T05:31:39.587Z,99392.66
2023-05-09T05:32:42.125Z,99391.66
2023-05-09T05:33:43.833Z,99388.19
2023-05-09T05:34:45.582Z,99393.09
2023-05-09T05:35:47.287Z,99394.72
2023-05-09T05:36:49.004Z,99392.69
2023-05-09T05:37:53.795Z,99393.50
2023-05-09T05:38:55.606Z,99398.41
2023-05-09T05:39:57.590Z,99400.44
2023-05-09T05:40:59.276Z,99396.38
2023-05-09T05:42:01.046Z,99399.22
2023-05-09T05:43:02.783Z,99408.78
2023-05-09T05:44:04.693Z,99400.44
2023-05-09T05:45:06.967Z,99408.16
2023-05-09T05:46:08.773Z,99398.81
2023-05-09T05:47:10.643Z,99406.94
2023-05-09T05:48:12.459Z,99407.34
2023-05-09T05:49:14.224Z,99398.59
2023-05-09T05:50:15.967Z,99401.22
2023-05-09T05:51:17.684Z,99409.34
2023-05-09T05:52:19.467Z,99403.28
2023-05-09T05:53:21.188Z,99413.44
2023-05-09T05:54:22.935Z,99409.97
2023-05-09T05:55:24.754Z,99405.72
2023-05-09T05:56:26.436Z,99397.19
2023-05-09T05:57:28.112Z,99414.09
2023-05-09T05:58:29.786Z,99410.63
2023-05-09T05:59:31.493Z,99410.19
2023-05-09T06:00:33.267Z,99406.16
2023-05-09T06:01:35.081Z,99412.41
2023-05-09T06:02:37.174Z,99400.22
2023-05-09T06:03:38.986Z,99395.53
2023-05-09T06:04:41.604Z,99408.75
2023-05-09T06:05:47.423Z,99411.00
2023-05-09T06:06:49.299Z,99415.66
2023-05-09T06:07:50.979Z,99406.09
2023-05-09T06:08:52.859Z,99404.06
2023-05-09T06:09:54.587Z,99404.69
2023-05-09T06:10:56.337Z,99404.88
2023-05-09T06:11:58.091Z,99402.84
2023-05-09T06:12:59.831Z,99395.31
2023-05-09T06:14:01.543Z,99406.28
2023-05-09T06:15:05.946Z,99403.66
2023-05-09T06:16:18.623Z,99398.78
2023-05-09T06:17:21.470Z,99414.03
2023-05-09T06:18:23.417Z,99401.00
2023-05-09T06:19:25.227Z,99409.56
2023-05-09T06:20:27.311Z,99410.38
2023-05-09T06:21:28.991Z,99408.94
2023-05-09T06:22:30.770Z,99412.00
2023-05-09T06:23:32.952Z,99422.97
2023-05-09T06:24:36.347Z,99408.94
2023-05-09T06:25:38.457Z,99410.16
2023-05-09T06:26:40.679Z,99411.59
2023-05-09T06:27:42.872Z,99415.88
2023-05-09T06:28:44.587Z,99401.84
2023-05-09T06:29:46.305Z,99413.03
2023-05-09T06:30:48.002Z,99417.13
2023-05-09T06:31:49.773Z,99411.41
2023-05-09T06:32:51.501Z,99413.44
2023-05-09T06:33:53.846Z,99417.31
2023-05-09T06:34:55.588Z,99417.31
2023-05-09T06:35:59.150Z,99412.25
2023-05-09T06:37:00.908Z,99414.69
2023-05-09T06:38:02.684Z,99412.25
2023-05-09T06:39:04.533Z,99413.25
2023-05-09T06:40:07.399Z,99415.16
2023-05-09T06:41:09.086Z,99397.59
2023-05-09T06:42:10.833Z,99404.56
2023-05-09T06:43:12.612Z,99416.19
2023-05-09T06:44:14.303Z,99410.66
2023-05-09T06:45:16.421Z,99404.94
2023-05-09T06:46:18.608Z,99405.53
2023-05-09T06:47:20.396Z,99409.38
2023-05-09T06:48:24.030Z,99396.97
2023-05-09T06:49:26.558Z,99403.69
2023-05-09T06:50:29.091Z,99406.97
2023-05-09T06:51:31.815Z,99408.56
2023-05-09T06:52:33.510Z,99414.91
2023-05-09T06:53:35.328Z,99406.97
2023-05-09T06:54:37.015Z,99424.03
2023-05-09T06:55:38.926Z,99421.00
2023-05-09T06:56:40.929Z,99409.81
2023-05-09T06:57:42.700Z,99420.19
2023-05-09T06:58:44.428Z,99416.72
2023-05-09T06:59:46.253Z,99419.97
2023-05-09T07:00:48.113Z,99417.13
2023-05-09T07:01:50.039Z,99424.91
2023-05-09T07:02:51.810Z,99424.91
2023-05-09T07:03:53.551Z,99430.56
2023-05-09T07:04:55.285Z,99420.44
2023-05-09T07:05:59.059Z,99424.91
2023-05-09T07:07:01.071Z,99426.91
2023-05-09T07:08:02.849Z,99424.28
2023-05-09T07:09:07.360Z,99421.63
2023-05-09T07:10:12.333Z,99424.50
2023-05-09T07:11:14.461Z,99421.66
2023-05-09T07:12:16.218Z,99420.59
2023-05-09T07:13:18.056Z,99427.94
2023-05-09T07:14:20.630Z,99427.34
2023-05-09T07:15:36.642Z,99425.34
2023-05-09T07:16:42.819Z,99432.66
2023-05-09T07:17:44.590Z,99425.72
2023-05-09T07:18:46.384Z,99429.19
2023-05-09T07:19:48.068Z,99433.03
2023-05-09T07:20:49.835Z,99434.66
2023-05-09T07:21:51.559Z,99427.13
2023-05-09T07:22:53.271Z,99435.88
2023-05-09T07:23:54.982Z,99430.34
2023-05-09T07:24:56.741Z,99436.66
2023-05-09T07:25:59.085Z,99435.66
2023-05-09T07:27:03.956Z,99428.75
2023-05-09T07:28:06.043Z,99431.84
2023-05-09T07:29:07.732Z,99424.91
2023-05-09T07:30:09.778Z,99425.72
2023-05-09T07:31:11.569Z,99433.28
2023-05-09T07:32:13.332Z,99429.38
2023-05-09T07:33:15.056Z,99427.13
2023-05-09T07:34:17.252Z,99430.19
2023-05-09T07:35:20.070Z,99426.75
2023-05-09T07:36:21.855Z,99424.31
2023-05-09T07:37:23.625Z,99433.88
2023-05-09T07:38:25.588Z,99430.63
2023-05-09T07:39:27.293Z,99438.97
2023-05-09T07:40:29.023Z,99433.69
2023-05-09T07:41:31.645Z,99425.94
2023-05-09T07:42:33.402Z,99431.84
2023-05-09T07:43:35.234Z,99427.97
2023-05-09T07:44:36.919Z,99434.50
2023-05-09T07:45:38.669Z,99433.91
2023-05-09T07:46:42.231Z,99432.25
2023-05-09T07:47:44.340Z,99427.78
2023-05-09T07:48:46.102Z,99430.63
2023-05-09T07:49:48.183Z,99435.31
2023-05-09T07:50:49.900Z,99429.41
2023-05-09T07:51:51.634Z,99429.81
2023-05-09T07:52:53.622Z,99433.88
2023-05-09T07:53:56.655Z,99440.63
2023-05-09T07:54:58.415Z,99433.69
2023-05-09T07:56:00.836Z,99435.72
2023-05-09T07:57:02.588Z,99430.63
2023-05-09T07:58:04.299Z,99436.31
2023-05-09T07:59:06.040Z,99434.91
2023-05-09T08:00:11.456Z,99429.41
2023-05-09T08:01:13.146Z,99439.16
2023-05-09T08:02:14.843Z,99431.84
2023-05-09T08:03:16.714Z,99433.06
2023-05-09T08:04:18.613Z,99426.56
2023-05-09T08:05:20.515Z,99431.25
2023-05-09T08:06:22.385Z,99434.06
2023-05-09T08:07:24.651Z,99436.31
2023-05-09T08:08:27.218Z,99426.34
2023-05-09T08:09:28.888Z,99428.75
2023-05-09T08:10:31.160Z,99433.47
2023-05-09T08:11:34.599Z,99426.75
2023-05-09T08:12:36.442Z,99431.84
2023-05-09T08:13:38.178Z,99425.53
2023-05-09T08:14:39.950Z,99433.06
2023-05-09T08:15:41.764Z,99434.50
2023-05-09T08:16:43.554Z,99437.97
2023-05-09T08:17:45.330Z,99432.47
2023-05-09T08:18:47.173Z,99436.75
2023-05-09T08:19:48.952Z,99435.53
2023-05-09T08:20:51.164Z,99432.66
2023-05-09T08:21:53.433Z,99442.44
2023-05-09T08:22:55.158Z,99430.44
2023-05-09T08:23:57.080Z,99433.88
2023-05-09T08:24:58.808Z,99439.00
2023-05-09T08:26:00.677Z,99431.63
2023-05-09T08:27:03.022Z,99447.13
2023-05-09T08:28:04.872Z,99437.56
2023-05-09T08:29:06.575Z,99440.22
2023-05-09T08:30:08.755Z,99440.59
2023-05-09T08:31:10.689Z,99436.31
2023-05-09T08:32:12.450Z,99433.47
2023-05-09T08:33:14.187Z,99439.38
2023-05-09T08:34:16.203Z,99439.59
2023-05-09T08:35:18.034Z,99438.16
2023-05-09T08:36:19.791Z,99432.69
2023-05-09T08:37:21.500Z,99440.19
2023-05-09T08:38:24.502Z,99433.88
2023-05-09T08:39:26.256Z,99436.94
2023-05-09T08:40:27.943Z,99438.78
2023-05-09T08:41:36.023Z,99436.53
2023-05-09T08:42:40.864Z,99441.22
2023-05-09T08:43:42.946Z,99440.22
2023-05-09T08:44:44.695Z,99429.00
2023-05-09T08:45:51.490Z,99434.28
2023-05-09T08:46:56.900Z,99436.75
2023-05-09T08:47:59.845Z,99437.56
2023-05-09T08:49:01.862Z,99438.75
2023-05-09T08:50:04.498Z,99434.91
2023-05-09T08:51:07.532Z,99444.50
2023-05-09T08:52:09.427Z,99435.91
2023-05-09T08:53:12.478Z,99429.19
2023-05-09T08:54:15.549Z,99435.09
2023-05-09T08:55:17.546Z,99424.72
2023-05-09T08:56:19.461Z,99430.22
2023-05-09T08:57:21.204Z,99440.81
2023-05-09T08:58:23.287Z,99425.13
2023-05-09T08:59:26.626Z,99429.59
2023-05-09T09:00:32.113Z,99444.88
2023-05-09T09:01:37.502Z,99434.28
2023-05-09T09:02:41.868Z,99440.00
2023-05-09T09:03:47.778Z,99435.09
2023-05-09T09:04:49.611Z,99436.53
2023-05-09T09:05:52.276Z,99416.78
2023-05-09T09:06:54.601Z,99440.59
2023-05-09T09:07:58.395Z,99434.50
2023-05-09T09:09:01.053Z,99433.28
2023-05-09T09:10:04.488Z,99442.84
2023-05-09T09:11:07.434Z,99436.31
2023-05-09T09:12:10.381Z,99433.06
2023-05-09T09:13:13.821Z,99435.94
2023-05-09T09:14:27.728Z,99431.88
2023-05-09T09:15:34.052Z,99442.25
2023-05-09T09:16:37.586Z,99432.25
2023-05-09T09:17:42.868Z,99429.63
2023-05-09T09:18:46.230Z,99432.88
2023-05-09T09:19:50.440Z,99437.34
2023-05-09T09:20:58.117Z,99431.44
2023-05-09T09:22:04.610Z,99438.75
2023-05-09T09:23:12.464Z,99429.59
2023-05-09T09:24:14.840Z,99433.66
2023-05-09T09:25:16.575Z,99418.78
2023-05-09T09:26:18.416Z,99438.75
2023-05-09T09:27:20.163Z,99444.66
2023-05-09T09:28:22.039Z,99447.25
2023-05-09T09:29:24.652Z,99438.50
2023-05-09T09:30:26.756Z,99443.19
2023-05-09T09:31:32.498Z,99439.09
2023-05-09T09:32:34.895Z,99441.97
2023-05-09T09:33:36.664Z,99445.44
2023-05-09T09:34:38.396Z,99439.13
2023-05-09T09:35:41.324Z,99446.09
2023-05-09T09:36:43.280Z,99450.91
2023-05-09T09:37:45.086Z,99444.38
2023-05-09T09:38:46.997Z,99447.66
2023-05-09T09:39:58.090Z,99444.81
2023-05-09T09:40:59.803Z,99448.31
2023-05-09T09:42:13.686Z,99446.28
2023-05-09T09:43:15.525Z,99441.94
2023-05-09T09:44:22.165Z,99447.47
2023-05-09T09:45:24.010Z,99443.38
2023-05-09T09:46:26.177Z,99443.44
2023-05-09T09:47:33.980Z,99437.88
2023-05-09T09:48:36.398Z,99441.59
2023-05-09T09:49:46.191Z,99427.09
2023-05-09T09:50:48.571Z,99440.78
2023-05-09T09:51:57.772Z,99440.34
2023-05-09T09:53:01.053Z,99429.75
2023-05-09T09:54:03.551Z,99431.19
2023-05-09T09:55:05.963Z,99426.91
2023-05-09T09:56:08.369Z,99437.53
2023-05-09T09:57:10.091Z,99427.38
2023-05-09T09:58:19.320Z,99426.75
2023-05-09T09:59:25.992Z,99436.31
2023-05-09T10:00:28.619Z,99429.78
2023-05-09T10:01:30.487Z,99426.56
2023-05-09T10:02:32.979Z,99429.38
2023-05-09T10:03:38.161Z,99437.50
2023-05-09T10:04:43.431Z,99431.78
2023-05-09T10:05:45.222Z,99433.19
2023-05-09T10:07:01.060Z,99423.84
2023-05-09T10:08:04.874Z,99430.34
2023-05-09T10:09:06.832Z,99425.69
2023-05-09T10:10:09.428Z,99430.53
2023-05-09T10:11:11.765Z,99437.25
2023-05-09T10:12:15.594Z,99422.38
2023-05-09T10:13:17.421Z,99424.44
2023-05-09T10:14:21.299Z,99424.22
2023-05-09T10:15:23.972Z,99425.66
2023-05-09T10:16:40.190Z,99431.59
2023-05-09T10:17:46.096Z,99427.09
2023-05-09T10:18:48.187Z,99428.94
2023-05-09T10:19:51.154Z,99427.31
2023-05-09T10:20:54.111Z,99425.91
2023-05-09T10:21:58.320Z,99430.81
2023-05-09T10:23:02.772Z,99436.31
2023-05-09T10:24:05.813Z,99431.84
2023-05-09T10:25:19.864Z,99429.41
2023-05-09T10:26:32.052Z,99432.66
2023-05-09T10:27:36.568Z,99440.81
2023-05-09T10:28:40.744Z,99433.91
2023-05-09T10:29:46.594Z,99438.38
2023-05-09T10:31:28.515Z,99437.94
2023-05-09T10:32:53.031Z,99437.97
2023-05-09T10:33:56.063Z,99440.63
2023-05-09T10:35:05.332Z,99441.22
2023-05-09T10:36:08.521Z,99441.59
2023-05-09T10:37:10.525Z,99436.31
2023-05-09T10:38:12.752Z,99437.75
2023-05-09T10:39:15.896Z,99443.47
2023-05-09T10:40:19.968Z,99442.22
2023-05-09T10:41:22.390Z,99447.50
2023-05-09T10:42:25.403Z,99440.38
2023-05-09T10:43:28.078Z,99446.06
2023-05-09T10:44:29.812Z,99441.16
2023-05-09T10:45:31.944Z,99447.72
2023-05-09T10:46:34.115Z,99444.06
2023-05-09T10:47:37.130Z,99449.72
2023-05-09T10:48:40.142Z,99448.06
2023-05-09T10:49:44.520Z,99446.69
2023-05-09T10:50:46.999Z,99436.91
2023-05-09T10:51:51.374Z,99439.34
2023-05-09T10:53:06.187Z,99440.78
2023-05-09T10:54:16.560Z,99446.09
2023-05-09T10:55:18.296Z,99443.44
2023-05-09T10:56:27.171Z,99441.19
2023-05-09T10:57:31.410Z,99448.09
2023-05-09T10:58:36.349Z,99438.75
2023-05-09T10:59:42.642Z,99440.38
2023-05-09T11:00:44.687Z,99434.91
2023-05-09T11:01:46.973Z,99435.50
2023-05-09T11:03:15.344Z,99439.56
2023-05-09T11:04:17.502Z,99430.59
2023-05-09T11:05:20.405Z,99442.41
2023-05-09T11:06:51.643Z,99441.81
2023-05-09T11:08:25.954Z,99439.97
2023-05-09T11:09:39.045Z,99437.13
2023-05-09T11:10:43.856Z,99434.06
2023-05-09T11:11:53.467Z,99436.72
2023-05-09T11:12:57.990Z,99438.75
2023-05-09T11:14:00.176Z,99428.19
2023-05-09T11:15:08.000Z,99432.66
2023-05-09T11:16:11.073Z,99426.56
2023-05-09T11:17:28.380Z,99431.03
2023-05-09T11:18:32.486Z,99429.81
2023-05-09T11:19:47.299Z,99440.63
2023-05-09T11:20:49.397Z,99430.22
2023-05-09T11:22:03.061Z,99429.00
2023-05-09T11:23:06.212Z,99429.19
2023-05-09T11:24:17.811Z,99429.19
2023-05-09T11:25:28.560Z,99427.38
2023-05-09T11:26:30.887Z,99427.16
2023-05-09T11:28:00.947Z,99439.38
2023-05-09T11:29:06.785Z,99431.44
2023-05-09T11:30:10.749Z,99429.81
2023-05-09T11:31:14.333Z,99435.13
2023-05-09T11:32:16.425Z,99426.97
2023-05-09T11:33:30.302Z,99424.94
2023-05-09T11:34:33.312Z,99430.44
2023-05-09T11:35:37.691Z,99437.56
2023-05-09T11:36:43.194Z,99436.13
2023-05-09T11:38:00.232Z,99424.72
2023-05-09T11:39:11.613Z,99427.38
2023-05-09T11:40:15.333Z,99433.47
2023-05-09T11:41:17.560Z,99436.13
2023-05-09T11:42:19.745Z,99433.47
2023-05-09T11:43:22.317Z,99426.34
2023-05-09T11:44:24.595Z,99434.91
2023-05-09T11:45:31.343Z,99437.16
2023-05-09T11:46:33.128Z,99433.47
2023-05-09T11:47:37.277Z,99431.03
2023-05-09T11:48:40.037Z,99440.41
2023-05-09T11:49:44.956Z,99434.09
2023-05-09T11:50:48.100Z,99432.47
2023-05-09T11:51:49.811Z,99422.69
2023-05-09T11:52:52.147Z,99438.38
2023-05-09T11:53:54.242Z,99428.59
2023-05-09T11:54:56.044Z,99433.06
2023-05-09T11:55:57.826Z,99433.50
2023-05-09T11:57:02.651Z,99428.59
2023-05-09T11:58:07.465Z,99433.91
2023-05-09T11:59:10.655Z,99427.78
2023-05-09T12:00:13.058Z,99430.63
2023-05-09T12:01:14.878Z,99432.47
2023-05-09T12:02:16.877Z,99417.41
2023-05-09T12:03:20.168Z,99427.56
2023-05-09T12:04:22.107Z,99418.81
2023-05-09T12:05:23.985Z,99428.59
2023-05-09T12:06:30.178Z,99419.03
2023-05-09T12:07:32.026Z,99428.56
2023-05-09T12:08:33.762Z,99426.97
2023-05-09T12:09:39.112Z,99419.59
2023-05-09T12:10:40.822Z,99416.75
2023-05-09T12:11:50.185Z,99414.72
2023-05-09T12:12:55.820Z,99413.91
2023-05-09T12:13:57.733Z,99419.19
2023-05-09T12:15:04.665Z,99420.00
2023-05-09T12:16:09.219Z,99419.38
2023-05-09T12:17:10.962Z,99420.00
2023-05-09T12:18:12.694Z,99428.31
2023-05-09T12:19:15.258Z,99420.00
2023-05-09T12:20:17.034Z,99413.44
2023-05-09T12:21:19.872Z,99416.09
2023-05-09T12:22:22.205Z,99414.88
2023-05-09T12:23:23.922Z,99409.94
2023-05-09T12:24:30.230Z,99404.44
2023-05-09T12:25:31.979Z,99410.38
2023-05-09T12:26:33.933Z,99409.16
2023-05-09T12:27:37.766Z,99392.88
2023-05-09T12:28:40.025Z,99401.81